Holmes Chapel, United Kingdom
Current Conditions -  °F | °C
As of 4:50 AM on Tuesday 21 Oct 2014 (Local Time) from EGCC Reporting Station
Moderate Rain Moderate Rain  
Wind Chill: 54°   Ceiling: 2100
Heat Index: 54°   Visibility: 4mi
Dew Point: 54°   Wind: 23mph
Humidity: 100%   Direction: 190°S
Pressure: 29.35"   Gusts: NA
Location:  53.2°N, 2.36°W
Report Text: EGCC 210350Z 19020KT 7000 RA FEW011 SCT015 BKN021CB 12/12 Q0994 RERA BECMG 26020G30KT
Loading
Personal Weather Stations






























Interactive Weather Map
Tropical Storm Tracking
New forecast layout! Learn more

10-Day Weather Forecast

Advertisements
Track Severe Weather on mobile